sensor_id;sensor_type;location;lat;lon;timestamp;P1;durP1;ratioP1;P2;durP2;ratioP2
10902;SDS011;5504;47.312;11.060;2024-01-07T00:00:45;24.30;;;17.57;;
10902;SDS011;5504;47.312;11.060;2024-01-07T00:03:11;22.00;;;17.20;;
10902;SDS011;5504;47.312;11.060;2024-01-07T00:05:37;23.50;;;17.53;;
10902;SDS011;5504;47.312;11.060;2024-01-07T00:08:03;22.87;;;16.67;;
10902;SDS011;5504;47.312;11.060;2024-01-07T00:10:29;20.70;;;15.43;;
10902;SDS011;5504;47.312;11.060;2024-01-07T00:12:54;26.40;;;18.53;;
10902;SDS011;5504;47.312;11.060;2024-01-07T00:15:20;21.97;;;16.43;;
10902;SDS011;5504;47.312;11.060;2024-01-07T00:17:46;23.27;;;18.10;;
10902;SDS011;5504;47.312;11.060;2024-01-07T00:20:12;29.50;;;20.27;;
10902;SDS011;5504;47.312;11.060;2024-01-07T00:22:37;29.57;;;20.77;;
10902;SDS011;5504;47.312;11.060;2024-01-07T00:25:03;26.03;;;18.80;;
10902;SDS011;5504;47.312;11.060;2024-01-07T00:27:29;23.63;;;17.13;;
10902;SDS011;5504;47.312;11.060;2024-01-07T00:29:55;24.03;;;17.40;;
10902;SDS011;5504;47.312;11.060;2024-01-07T00:32:21;24.17;;;18.40;;
10902;SDS011;5504;47.312;11.060;2024-01-07T00:34:46;26.57;;;18.73;;
10902;SDS011;5504;47.312;11.060;2024-01-07T00:37:12;29.17;;;20.13;;
10902;SDS011;5504;47.312;11.060;2024-01-07T00:39:38;39.07;;;25.27;;
10902;SDS011;5504;47.312;11.060;2024-01-07T00:42:04;34.73;;;23.80;;
10902;SDS011;5504;47.312;11.060;2024-01-07T00:44:30;31.37;;;22.23;;
10902;SDS011;5504;47.312;11.060;2024-01-07T00:46:55;36.23;;;24.53;;
10902;SDS011;5504;47.312;11.060;2024-01-07T00:49:21;32.40;;;23.20;;
10902;SDS011;5504;47.312;11.060;2024-01-07T00:51:47;32.67;;;23.67;;
10902;SDS011;5504;47.312;11.060;2024-01-07T00:54:12;33.30;;;23.07;;
10902;SDS011;5504;47.312;11.060;2024-01-07T00:56:38;31.50;;;22.23;;
10902;SDS011;5504;47.312;11.060;2024-01-07T00:59:04;30.70;;;22.27;;
10902;SDS011;5504;47.312;11.060;2024-01-07T01:01:29;33.77;;;22.80;;
10902;SDS011;5504;47.312;11.060;2024-01-07T01:03:56;30.03;;;22.13;;
10902;SDS011;5504;47.312;11.060;2024-01-07T01:06:23;24.67;;;20.37;;
10902;SDS011;5504;47.312;11.060;2024-01-07T01:08:48;27.93;;;20.40;;
10902;SDS011;5504;47.312;11.060;2024-01-07T01:11:14;25.83;;;20.00;;
10902;SDS011;5504;47.312;11.060;2024-01-07T01:13:40;26.13;;;19.40;;
10902;SDS011;5504;47.312;11.060;2024-01-07T01:16:05;24.43;;;19.43;;
10902;SDS011;5504;47.312;11.060;2024-01-07T01:18:31;26.47;;;20.27;;
10902;SDS011;5504;47.312;11.060;2024-01-07T01:20:57;24.17;;;18.87;;
10902;SDS011;5504;47.312;11.060;2024-01-07T01:23:23;26.33;;;19.23;;
10902;SDS011;5504;47.312;11.060;2024-01-07T01:25:48;25.13;;;19.27;;
10902;SDS011;5504;47.312;11.060;2024-01-07T01:28:14;24.67;;;19.20;;
10902;SDS011;5504;47.312;11.060;2024-01-07T01:30:40;23.37;;;18.83;;
10902;SDS011;5504;47.312;11.060;2024-01-07T01:33:06;24.63;;;19.50;;
10902;SDS011;5504;47.312;11.060;2024-01-07T01:35:31;25.50;;;19.97;;
10902;SDS011;5504;47.312;11.060;2024-01-07T01:37:57;26.53;;;20.50;;
10902;SDS011;5504;47.312;11.060;2024-01-07T01:40:23;27.67;;;20.20;;
10902;SDS011;5504;47.312;11.060;2024-01-07T01:42:49;25.27;;;19.23;;
10902;SDS011;5504;47.312;11.060;2024-01-07T01:45:14;24.67;;;19.10;;
10902;SDS011;5504;47.312;11.060;2024-01-07T01:47:40;27.77;;;20.17;;
10902;SDS011;5504;47.312;11.060;2024-01-07T01:50:07;25.30;;;20.50;;
10902;SDS011;5504;47.312;11.060;2024-01-07T01:52:33;25.50;;;20.30;;
10902;SDS011;5504;47.312;11.060;2024-01-07T01:55:00;26.80;;;20.43;;
10902;SDS011;5504;47.312;11.060;2024-01-07T01:57:29;24.37;;;19.30;;
10902;SDS011;5504;47.312;11.060;2024-01-07T01:59:59;23.20;;;18.37;;
10902;SDS011;5504;47.312;11.060;2024-01-07T02:02:29;24.50;;;19.53;;
10902;SDS011;5504;47.312;11.060;2024-01-07T02:04:56;24.20;;;18.80;;
10902;SDS011;5504;47.312;11.060;2024-01-07T02:07:24;26.90;;;19.10;;
10902;SDS011;5504;47.312;11.060;2024-01-07T02:09:50;23.67;;;17.33;;
10902;SDS011;5504;47.312;11.060;2024-01-07T02:12:16;20.87;;;16.47;;
10902;SDS011;5504;47.312;11.060;2024-01-07T02:14:41;20.63;;;15.80;;
10902;SDS011;5504;47.312;11.060;2024-01-07T02:17:07;19.17;;;15.57;;
10902;SDS011;5504;47.312;11.060;2024-01-07T02:19:33;20.17;;;16.03;;
10902;SDS011;5504;47.312;11.060;2024-01-07T02:21:59;20.00;;;15.60;;
10902;SDS011;5504;47.312;11.060;2024-01-07T02:24:24;18.90;;;14.77;;
10902;SDS011;5504;47.312;11.060;2024-01-07T02:26:50;19.07;;;14.83;;
10902;SDS011;5504;47.312;11.060;2024-01-07T02:29:16;19.87;;;15.30;;
10902;SDS011;5504;47.312;11.060;2024-01-07T02:31:42;18.33;;;14.40;;
10902;SDS011;5504;47.312;11.060;2024-01-07T02:34:10;17.60;;;13.87;;
10902;SDS011;5504;47.312;11.060;2024-01-07T02:36:36;17.57;;;14.27;;
10902;SDS011;5504;47.312;11.060;2024-01-07T02:39:02;17.27;;;14.23;;
10902;SDS011;5504;47.312;11.060;2024-01-07T02:41:27;18.23;;;13.63;;
10902;SDS011;5504;47.312;11.060;2024-01-07T02:43:53;19.17;;;14.37;;
10902;SDS011;5504;47.312;11.060;2024-01-07T02:46:19;18.83;;;14.30;;
10902;SDS011;5504;47.312;11.060;2024-01-07T02:48:46;18.07;;;13.90;;
10902;SDS011;5504;47.312;11.060;2024-01-07T02:51:11;17.43;;;13.67;;
10902;SDS011;5504;47.312;11.060;2024-01-07T02:53:37;16.37;;;12.73;;
10902;SDS011;5504;47.312;11.060;2024-01-07T02:56:03;16.43;;;13.00;;
10902;SDS011;5504;47.312;11.060;2024-01-07T02:58:29;15.70;;;11.30;;
10902;SDS011;5504;47.312;11.060;2024-01-07T03:00:54;13.80;;;10.67;;
10902;SDS011;5504;47.312;11.060;2024-01-07T03:03:20;14.00;;;10.30;;
10902;SDS011;5504;47.312;11.060;2024-01-07T03:05:46;13.40;;;10.40;;
10902;SDS011;5504;47.312;11.060;2024-01-07T03:08:11;14.97;;;11.63;;
10902;SDS011;5504;47.312;11.060;2024-01-07T03:10:37;15.83;;;12.20;;
10902;SDS011;5504;47.312;11.060;2024-01-07T03:13:03;16.87;;;13.20;;
10902;SDS011;5504;47.312;11.060;2024-01-07T03:15:30;16.97;;;13.47;;
10902;SDS011;5504;47.312;11.060;2024-01-07T03:17:57;17.33;;;13.40;;
10902;SDS011;5504;47.312;11.060;2024-01-07T03:20:23;16.97;;;13.50;;
10902;SDS011;5504;47.312;11.060;2024-01-07T03:22:48;17.60;;;12.97;;
10902;SDS011;5504;47.312;11.060;2024-01-07T03:25:14;16.30;;;12.90;;
10902;SDS011;5504;47.312;11.060;2024-01-07T03:27:40;16.90;;;12.87;;
10902;SDS011;5504;47.312;11.060;2024-01-07T03:30:06;17.10;;;13.47;;
10902;SDS011;5504;47.312;11.060;2024-01-07T03:32:33;16.07;;;12.17;;
10902;SDS011;5504;47.312;11.060;2024-01-07T03:34:58;14.43;;;11.80;;
10902;SDS011;5504;47.312;11.060;2024-01-07T03:37:24;14.83;;;12.07;;
10902;SDS011;5504;47.312;11.060;2024-01-07T03:39:50;18.67;;;13.03;;
10902;SDS011;5504;47.312;11.060;2024-01-07T03:42:16;16.27;;;12.27;;
10902;SDS011;5504;47.312;11.060;2024-01-07T03:44:41;15.70;;;12.40;;
10902;SDS011;5504;47.312;11.060;2024-01-07T03:47:07;15.03;;;12.03;;
10902;SDS011;5504;47.312;11.060;2024-01-07T03:49:33;16.13;;;12.43;;
10902;SDS011;5504;47.312;11.060;2024-01-07T03:52:01;15.23;;;11.60;;
10902;SDS011;5504;47.312;11.060;2024-01-07T03:54:27;14.43;;;10.77;;
10902;SDS011;5504;47.312;11.060;2024-01-07T03:56:53;12.47;;;9.70;;
10902;SDS011;5504;47.312;11.060;2024-01-07T03:59:18;11.57;;;9.50;;
10902;SDS011;5504;47.312;11.060;2024-01-07T04:01:44;10.93;;;8.97;;
10902;SDS011;5504;47.312;11.060;2024-01-07T04:04:10;13.77;;;10.77;;
10902;SDS011;5504;47.312;11.060;2024-01-07T04:06:35;11.73;;;9.10;;
10902;SDS011;5504;47.312;11.060;2024-01-07T04:09:01;14.40;;;10.77;;
10902;SDS011;5504;47.312;11.060;2024-01-07T04:11:28;13.53;;;10.23;;
10902;SDS011;5504;47.312;11.060;2024-01-07T04:13:53;12.67;;;9.40;;
10902;SDS011;5504;47.312;11.060;2024-01-07T04:16:19;13.93;;;10.20;;
10902;SDS011;5504;47.312;11.060;2024-01-07T04:18:46;13.87;;;10.60;;
10902;SDS011;5504;47.312;11.060;2024-01-07T04:21:12;14.80;;;11.03;;
10902;SDS011;5504;47.312;11.060;2024-01-07T04:23:38;16.93;;;11.77;;
10902;SDS011;5504;47.312;11.060;2024-01-07T04:26:05;14.93;;;11.10;;
10902;SDS011;5504;47.312;11.060;2024-01-07T04:28:34;13.93;;;10.53;;
10902;SDS011;5504;47.312;11.060;2024-01-07T04:31:00;14.10;;;10.23;;
10902;SDS011;5504;47.312;11.060;2024-01-07T04:33:25;16.23;;;11.13;;
10902;SDS011;5504;47.312;11.060;2024-01-07T04:35:52;13.33;;;9.90;;
10902;SDS011;5504;47.312;11.060;2024-01-07T04:38:22;13.83;;;9.83;;
10902;SDS011;5504;47.312;11.060;2024-01-07T04:40:48;13.33;;;9.70;;
10902;SDS011;5504;47.312;11.060;2024-01-07T04:43:14;13.33;;;9.67;;
10902;SDS011;5504;47.312;11.060;2024-01-07T04:45:40;14.13;;;9.27;;
10902;SDS011;5504;47.312;11.060;2024-01-07T04:48:06;15.03;;;10.10;;
10902;SDS011;5504;47.312;11.060;2024-01-07T04:50:32;13.17;;;9.70;;
10902;SDS011;5504;47.312;11.060;2024-01-07T04:52:57;13.13;;;9.33;;
10902;SDS011;5504;47.312;11.060;2024-01-07T04:55:23;12.50;;;9.07;;
10902;SDS011;5504;47.312;11.060;2024-01-07T04:57:49;11.00;;;7.90;;
10902;SDS011;5504;47.312;11.060;2024-01-07T05:00:15;11.83;;;8.33;;
10902;SDS011;5504;47.312;11.060;2024-01-07T05:02:41;11.20;;;8.60;;
10902;SDS011;5504;47.312;11.060;2024-01-07T05:05:09;13.87;;;9.97;;
10902;SDS011;5504;47.312;11.060;2024-01-07T05:07:35;14.40;;;10.43;;
10902;SDS011;5504;47.312;11.060;2024-01-07T05:10:02;14.53;;;10.40;;
10902;SDS011;5504;47.312;11.060;2024-01-07T05:12:28;14.93;;;10.17;;
10902;SDS011;5504;47.312;11.060;2024-01-07T05:14:54;12.37;;;9.47;;
10902;SDS011;5504;47.312;11.060;2024-01-07T05:17:20;13.77;;;9.53;;
10902;SDS011;5504;47.312;11.060;2024-01-07T05:19:45;15.87;;;10.80;;
10902;SDS011;5504;47.312;11.060;2024-01-07T05:22:11;15.10;;;10.43;;
10902;SDS011;5504;47.312;11.060;2024-01-07T05:24:37;16.07;;;10.67;;
10902;SDS011;5504;47.312;11.060;2024-01-07T05:27:03;15.33;;;10.90;;
10902;SDS011;5504;47.312;11.060;2024-01-07T05:29:30;15.87;;;10.87;;
10902;SDS011;5504;47.312;11.060;2024-01-07T05:31:58;14.63;;;10.63;;
10902;SDS011;5504;47.312;11.060;2024-01-07T05:34:25;17.03;;;11.83;;
10902;SDS011;5504;47.312;11.060;2024-01-07T05:36:52;16.53;;;11.73;;
10902;SDS011;5504;47.312;11.060;2024-01-07T05:39:17;16.40;;;11.73;;
10902;SDS011;5504;47.312;11.060;2024-01-07T05:41:43;20.43;;;13.80;;
10902;SDS011;5504;47.312;11.060;2024-01-07T05:44:09;20.63;;;13.93;;
10902;SDS011;5504;47.312;11.060;2024-01-07T05:46:38;19.63;;;13.77;;
10902;SDS011;5504;47.312;11.060;2024-01-07T05:49:07;24.90;;;16.20;;
10902;SDS011;5504;47.312;11.060;2024-01-07T05:51:33;25.23;;;15.83;;
10902;SDS011;5504;47.312;11.060;2024-01-07T05:54:03;22.97;;;15.40;;
10902;SDS011;5504;47.312;11.060;2024-01-07T05:56:28;23.27;;;15.87;;
10902;SDS011;5504;47.312;11.060;2024-01-07T05:58:54;24.20;;;15.97;;
10902;SDS011;5504;47.312;11.060;2024-01-07T06:01:20;23.57;;;15.40;;
10902;SDS011;5504;47.312;11.060;2024-01-07T06:03:47;24.60;;;16.60;;
10902;SDS011;5504;47.312;11.060;2024-01-07T06:06:13;24.77;;;15.60;;
10902;SDS011;5504;47.312;11.060;2024-01-07T06:08:42;21.97;;;14.60;;
10902;SDS011;5504;47.312;11.060;2024-01-07T06:11:08;25.53;;;16.70;;
10902;SDS011;5504;47.312;11.060;2024-01-07T06:13:36;24.03;;;16.57;;
10902;SDS011;5504;47.312;11.060;2024-01-07T06:16:01;24.50;;;16.20;;
10902;SDS011;5504;47.312;11.060;2024-01-07T06:18:27;25.77;;;16.37;;
10902;SDS011;5504;47.312;11.060;2024-01-07T06:20:53;25.93;;;16.73;;
10902;SDS011;5504;47.312;11.060;2024-01-07T06:23:19;26.57;;;17.33;;
10902;SDS011;5504;47.312;11.060;2024-01-07T06:25:44;25.93;;;16.70;;
10902;SDS011;5504;47.312;11.060;2024-01-07T06:28:10;23.90;;;15.60;;
10902;SDS011;5504;47.312;11.060;2024-01-07T06:30:36;25.93;;;16.63;;
10902;SDS011;5504;47.312;11.060;2024-01-07T06:33:01;28.67;;;17.67;;
10902;SDS011;5504;47.312;11.060;2024-01-07T06:35:27;28.80;;;17.07;;
10902;SDS011;5504;47.312;11.060;2024-01-07T06:37:53;26.50;;;16.90;;
10902;SDS011;5504;47.312;11.060;2024-01-07T06:40:20;26.13;;;17.43;;
10902;SDS011;5504;47.312;11.060;2024-01-07T06:42:45;27.87;;;17.13;;
10902;SDS011;5504;47.312;11.060;2024-01-07T06:45:13;23.77;;;16.50;;
10902;SDS011;5504;47.312;11.060;2024-01-07T06:47:40;25.57;;;16.37;;
10902;SDS011;5504;47.312;11.060;2024-01-07T06:50:06;24.93;;;15.93;;
10902;SDS011;5504;47.312;11.060;2024-01-07T06:52:32;23.43;;;15.50;;
10902;SDS011;5504;47.312;11.060;2024-01-07T06:54:58;24.13;;;15.57;;
10902;SDS011;5504;47.312;11.060;2024-01-07T06:57:24;22.90;;;14.77;;
10902;SDS011;5504;47.312;11.060;2024-01-07T06:59:50;21.77;;;15.03;;
10902;SDS011;5504;47.312;11.060;2024-01-07T07:02:15;20.10;;;14.37;;
10902;SDS011;5504;47.312;11.060;2024-01-07T07:04:41;21.53;;;14.57;;
10902;SDS011;5504;47.312;11.060;2024-01-07T07:07:07;21.87;;;14.40;;
10902;SDS011;5504;47.312;11.060;2024-01-07T07:09:32;21.83;;;14.37;;
10902;SDS011;5504;47.312;11.060;2024-01-07T07:11:59;22.40;;;14.23;;
10902;SDS011;5504;47.312;11.060;2024-01-07T07:14:25;23.53;;;14.33;;
10902;SDS011;5504;47.312;11.060;2024-01-07T07:16:51;23.10;;;14.43;;
10902;SDS011;5504;47.312;11.060;2024-01-07T07:19:17;28.40;;;18.27;;
10902;SDS011;5504;47.312;11.060;2024-01-07T07:21:43;28.00;;;16.53;;
10902;SDS011;5504;47.312;11.060;2024-01-07T07:24:09;24.77;;;16.03;;
10902;SDS011;5504;47.312;11.060;2024-01-07T07:26:35;23.80;;;15.27;;
10902;SDS011;5504;47.312;11.060;2024-01-07T07:29:05;21.13;;;14.57;;
10902;SDS011;5504;47.312;11.060;2024-01-07T07:31:32;22.00;;;14.47;;
10902;SDS011;5504;47.312;11.060;2024-01-07T07:33:57;28.53;;;17.63;;
10902;SDS011;5504;47.312;11.060;2024-01-07T07:36:23;28.10;;;18.07;;
10902;SDS011;5504;47.312;11.060;2024-01-07T07:38:49;26.63;;;15.93;;
10902;SDS011;5504;47.312;11.060;2024-01-07T07:41:14;27.30;;;17.13;;
10902;SDS011;5504;47.312;11.060;2024-01-07T07:43:40;25.53;;;16.27;;
10902;SDS011;5504;47.312;11.060;2024-01-07T07:46:06;26.03;;;16.43;;
10902;SDS011;5504;47.312;11.060;2024-01-07T07:48:32;29.67;;;17.27;;
10902;SDS011;5504;47.312;11.060;2024-01-07T07:50:58;29.93;;;18.30;;
10902;SDS011;5504;47.312;11.060;2024-01-07T07:53:23;26.33;;;16.13;;
10902;SDS011;5504;47.312;11.060;2024-01-07T07:55:49;26.17;;;16.30;;
10902;SDS011;5504;47.312;11.060;2024-01-07T07:58:15;27.07;;;17.17;;
10902;SDS011;5504;47.312;11.060;2024-01-07T08:00:41;32.10;;;20.00;;
10902;SDS011;5504;47.312;11.060;2024-01-07T08:03:07;28.07;;;17.77;;
10902;SDS011;5504;47.312;11.060;2024-01-07T08:05:32;26.20;;;16.60;;
10902;SDS011;5504;47.312;11.060;2024-01-07T08:07:58;23.80;;;15.80;;
10902;SDS011;5504;47.312;11.060;2024-01-07T08:10:24;27.20;;;16.80;;
10902;SDS011;5504;47.312;11.060;2024-01-07T08:12:50;27.53;;;17.77;;
10902;SDS011;5504;47.312;11.060;2024-01-07T08:15:15;29.57;;;18.43;;
10902;SDS011;5504;47.312;11.060;2024-01-07T08:17:41;29.90;;;19.03;;
10902;SDS011;5504;47.312;11.060;2024-01-07T08:20:09;31.77;;;20.40;;
10902;SDS011;5504;47.312;11.060;2024-01-07T08:22:35;32.77;;;21.60;;
10902;SDS011;5504;47.312;11.060;2024-01-07T08:25:01;33.97;;;21.33;;
10902;SDS011;5504;47.312;11.060;2024-01-07T08:27:26;33.23;;;21.30;;
10902;SDS011;5504;47.312;11.060;2024-01-07T08:29:52;34.70;;;22.20;;
10902;SDS011;5504;47.312;11.060;2024-01-07T08:32:18;36.40;;;22.87;;
10902;SDS011;5504;47.312;11.060;2024-01-07T08:34:47;37.03;;;23.30;;
10902;SDS011;5504;47.312;11.060;2024-01-07T08:37:13;37.80;;;23.53;;
10902;SDS011;5504;47.312;11.060;2024-01-07T08:39:39;37.63;;;23.00;;
10902;SDS011;5504;47.312;11.060;2024-01-07T08:42:04;31.77;;;20.67;;
10902;SDS011;5504;47.312;11.060;2024-01-07T08:44:30;28.47;;;19.10;;
10902;SDS011;5504;47.312;11.060;2024-01-07T08:46:56;30.97;;;19.73;;
10902;SDS011;5504;47.312;11.060;2024-01-07T08:49:22;31.23;;;20.53;;
10902;SDS011;5504;47.312;11.060;2024-01-07T08:51:48;25.87;;;17.60;;
10902;SDS011;5504;47.312;11.060;2024-01-07T08:54:14;28.47;;;18.40;;
10902;SDS011;5504;47.312;11.060;2024-01-07T08:56:40;28.60;;;20.10;;
10902;SDS011;5504;47.312;11.060;2024-01-07T08:59:05;27.60;;;18.50;;
10902;SDS011;5504;47.312;11.060;2024-01-07T09:01:31;24.70;;;17.53;;
10902;SDS011;5504;47.312;11.060;2024-01-07T09:03:57;23.70;;;15.80;;
10902;SDS011;5504;47.312;11.060;2024-01-07T09:06:22;19.70;;;13.83;;
10902;SDS011;5504;47.312;11.060;2024-01-07T09:08:48;21.27;;;13.47;;
10902;SDS011;5504;47.312;11.060;2024-01-07T09:11:14;21.50;;;14.20;;
10902;SDS011;5504;47.312;11.060;2024-01-07T09:13:41;22.37;;;14.10;;
10902;SDS011;5504;47.312;11.060;2024-01-07T09:16:07;22.10;;;14.77;;
10902;SDS011;5504;47.312;11.060;2024-01-07T09:18:36;22.00;;;13.80;;
10902;SDS011;5504;47.312;11.060;2024-01-07T09:21:02;21.13;;;13.17;;
10902;SDS011;5504;47.312;11.060;2024-01-07T09:23:28;22.47;;;14.00;;
10902;SDS011;5504;47.312;11.060;2024-01-07T09:25:53;18.80;;;12.80;;
10902;SDS011;5504;47.312;11.060;2024-01-07T09:28:19;20.30;;;13.60;;
10902;SDS011;5504;47.312;11.060;2024-01-07T09:30:45;20.23;;;13.67;;
10902;SDS011;5504;47.312;11.060;2024-01-07T09:33:10;19.13;;;12.87;;
10902;SDS011;5504;47.312;11.060;2024-01-07T09:35:36;20.93;;;13.83;;
10902;SDS011;5504;47.312;11.060;2024-01-07T09:38:02;20.50;;;13.60;;
10902;SDS011;5504;47.312;11.060;2024-01-07T09:40:29;21.67;;;14.07;;
10902;SDS011;5504;47.312;11.060;2024-01-07T09:42:55;21.70;;;14.80;;
10902;SDS011;5504;47.312;11.060;2024-01-07T09:45:21;22.97;;;15.27;;
10902;SDS011;5504;47.312;11.060;2024-01-07T09:47:48;21.87;;;14.80;;
10902;SDS011;5504;47.312;11.060;2024-01-07T09:50:17;22.07;;;14.87;;
10902;SDS011;5504;47.312;11.060;2024-01-07T09:52:43;21.73;;;14.47;;
10902;SDS011;5504;47.312;11.060;2024-01-07T09:55:12;18.63;;;13.07;;
10902;SDS011;5504;47.312;11.060;2024-01-07T09:57:45;21.07;;;14.17;;
10902;SDS011;5504;47.312;11.060;2024-01-07T10:00:11;20.07;;;13.40;;
10902;SDS011;5504;47.312;11.060;2024-01-07T10:02:38;17.90;;;12.93;;
10902;SDS011;5504;47.312;11.060;2024-01-07T10:05:06;17.23;;;12.17;;
10902;SDS011;5504;47.312;11.060;2024-01-07T10:07:32;18.10;;;12.37;;
10902;SDS011;5504;47.312;11.060;2024-01-07T10:09:58;18.73;;;13.03;;
10902;SDS011;5504;47.312;11.060;2024-01-07T10:12:44;19.93;;;13.60;;
10902;SDS011;5504;47.312;11.060;2024-01-07T10:15:11;20.63;;;13.90;;
10902;SDS011;5504;47.312;11.060;2024-01-07T10:17:37;19.83;;;13.97;;
10902;SDS011;5504;47.312;11.060;2024-01-07T10:20:05;20.47;;;14.33;;
10902;SDS011;5504;47.312;11.060;2024-01-07T10:22:34;18.63;;;13.53;;
10902;SDS011;5504;47.312;11.060;2024-01-07T10:25:02;19.00;;;13.13;;
10902;SDS011;5504;47.312;11.060;2024-01-07T10:27:28;16.23;;;11.83;;
10902;SDS011;5504;47.312;11.060;2024-01-07T10:29:58;34.00;;;24.10;;
10902;SDS011;5504;47.312;11.060;2024-01-07T10:32:23;56.17;;;38.60;;
10902;SDS011;5504;47.312;11.060;2024-01-07T10:34:49;33.83;;;23.87;;
10902;SDS011;5504;47.312;11.060;2024-01-07T10:37:19;16.33;;;11.53;;
10902;SDS011;5504;47.312;11.060;2024-01-07T10:39:45;15.57;;;11.27;;
10902;SDS011;5504;47.312;11.060;2024-01-07T10:42:11;17.77;;;12.30;;
10902;SDS011;5504;47.312;11.060;2024-01-07T10:44:38;15.53;;;11.43;;
10902;SDS011;5504;47.312;11.060;2024-01-07T10:47:06;20.77;;;13.83;;
10902;SDS011;5504;47.312;11.060;2024-01-07T10:49:35;19.93;;;14.27;;
10902;SDS011;5504;47.312;11.060;2024-01-07T10:52:02;23.17;;;16.70;;
10902;SDS011;5504;47.312;11.060;2024-01-07T10:54:29;26.10;;;17.77;;
10902;SDS011;5504;47.312;11.060;2024-01-07T10:56:59;25.87;;;17.13;;
10902;SDS011;5504;47.312;11.060;2024-01-07T10:59:46;23.13;;;15.93;;
10902;SDS011;5504;47.312;11.060;2024-01-07T11:02:13;22.97;;;15.57;;
10902;SDS011;5504;47.312;11.060;2024-01-07T11:07:45;21.93;;;15.67;;
10902;SDS011;5504;47.312;11.060;2024-01-07T11:10:38;21.17;;;14.87;;
10902;SDS011;5504;47.312;11.060;2024-01-07T11:13:08;20.60;;;14.67;;
10902;SDS011;5504;47.312;11.060;2024-01-07T11:15:50;19.83;;;13.80;;
10902;SDS011;5504;47.312;11.060;2024-01-07T11:18:19;22.53;;;15.13;;
10902;SDS011;5504;47.312;11.060;2024-01-07T11:20:46;22.73;;;15.80;;
10902;SDS011;5504;47.312;11.060;2024-01-07T11:23:28;23.97;;;18.17;;
10902;SDS011;5504;47.312;11.060;2024-01-07T11:25:55;21.00;;;15.40;;
10902;SDS011;5504;47.312;11.060;2024-01-07T11:28:42;21.00;;;15.37;;
10902;SDS011;5504;47.312;11.060;2024-01-07T11:31:19;20.80;;;14.73;;
10902;SDS011;5504;47.312;11.060;2024-01-07T11:33:47;17.73;;;12.77;;
10902;SDS011;5504;47.312;11.060;2024-01-07T11:36:17;14.80;;;11.30;;
10902;SDS011;5504;47.312;11.060;2024-01-07T11:41:09;17.37;;;12.43;;
10902;SDS011;5504;47.312;11.060;2024-01-07T11:43:37;10.87;;;8.47;;
10902;SDS011;5504;47.312;11.060;2024-01-07T11:46:03;11.33;;;9.03;;
10902;SDS011;5504;47.312;11.060;2024-01-07T11:48:29;11.63;;;9.40;;
10902;SDS011;5504;47.312;11.060;2024-01-07T11:50:54;9.57;;;8.07;;
10902;SDS011;5504;47.312;11.060;2024-01-07T11:53:20;9.03;;;6.97;;
10902;SDS011;5504;47.312;11.060;2024-01-07T11:55:46;9.03;;;7.20;;
10902;SDS011;5504;47.312;11.060;2024-01-07T11:58:12;10.90;;;7.10;;
10902;SDS011;5504;47.312;11.060;2024-01-07T12:00:38;10.03;;;7.97;;
10902;SDS011;5504;47.312;11.060;2024-01-07T12:03:04;8.63;;;6.90;;
10902;SDS011;5504;47.312;11.060;2024-01-07T12:05:30;7.20;;;6.13;;
10902;SDS011;5504;47.312;11.060;2024-01-07T12:07:56;7.37;;;5.83;;
10902;SDS011;5504;47.312;11.060;2024-01-07T12:10:25;10.03;;;6.60;;
10902;SDS011;5504;47.312;11.060;2024-01-07T12:12:51;9.27;;;6.70;;
10902;SDS011;5504;47.312;11.060;2024-01-07T12:15:17;6.97;;;5.80;;
10902;SDS011;5504;47.312;11.060;2024-01-07T12:17:54;6.77;;;5.33;;
10902;SDS011;5504;47.312;11.060;2024-01-07T12:20:22;7.73;;;5.93;;
10902;SDS011;5504;47.312;11.060;2024-01-07T12:22:48;10.23;;;5.83;;
10902;SDS011;5504;47.312;11.060;2024-01-07T12:25:13;7.63;;;6.07;;
10902;SDS011;5504;47.312;11.060;2024-01-07T12:27:48;6.47;;;5.50;;
10902;SDS011;5504;47.312;11.060;2024-01-07T12:30:17;6.57;;;5.53;;
10902;SDS011;5504;47.312;11.060;2024-01-07T12:32:44;7.07;;;5.33;;
10902;SDS011;5504;47.312;11.060;2024-01-07T12:35:10;6.27;;;5.17;;
10902;SDS011;5504;47.312;11.060;2024-01-07T12:37:36;5.80;;;5.10;;
10902;SDS011;5504;47.312;11.060;2024-01-07T12:40:02;5.37;;;4.50;;
10902;SDS011;5504;47.312;11.060;2024-01-07T12:42:29;5.97;;;4.70;;
10902;SDS011;5504;47.312;11.060;2024-01-07T12:44:55;5.73;;;5.03;;
10902;SDS011;5504;47.312;11.060;2024-01-07T12:47:21;5.57;;;5.00;;
10902;SDS011;5504;47.312;11.060;2024-01-07T12:49:46;5.10;;;4.60;;
10902;SDS011;5504;47.312;11.060;2024-01-07T12:52:12;5.97;;;5.23;;
10902;SDS011;5504;47.312;11.060;2024-01-07T12:54:38;6.27;;;5.63;;
10902;SDS011;5504;47.312;11.060;2024-01-07T12:57:04;5.90;;;5.30;;
10902;SDS011;5504;47.312;11.060;2024-01-07T12:59:30;6.63;;;5.90;;
10902;SDS011;5504;47.312;11.060;2024-01-07T13:01:56;6.67;;;5.97;;
10902;SDS011;5504;47.312;11.060;2024-01-07T13:04:22;7.37;;;5.90;;
10902;SDS011;5504;47.312;11.060;2024-01-07T13:06:48;6.57;;;5.77;;
10902;SDS011;5504;47.312;11.060;2024-01-07T13:09:13;6.47;;;5.80;;
10902;SDS011;5504;47.312;11.060;2024-01-07T13:11:39;7.07;;;6.00;;
10902;SDS011;5504;47.312;11.060;2024-01-07T13:14:05;7.30;;;5.73;;
10902;SDS011;5504;47.312;11.060;2024-01-07T13:16:31;5.17;;;4.67;;
10902;SDS011;5504;47.312;11.060;2024-01-07T13:18:56;5.77;;;5.17;;
10902;SDS011;5504;47.312;11.060;2024-01-07T13:21:22;6.30;;;5.23;;
10902;SDS011;5504;47.312;11.060;2024-01-07T13:23:49;5.30;;;4.80;;
10902;SDS011;5504;47.312;11.060;2024-01-07T13:26:15;6.07;;;5.47;;
10902;SDS011;5504;47.312;11.060;2024-01-07T13:28:41;5.67;;;4.60;;
10902;SDS011;5504;47.312;11.060;2024-01-07T13:31:07;4.83;;;4.33;;
10902;SDS011;5504;47.312;11.060;2024-01-07T13:33:37;5.60;;;5.00;;
10902;SDS011;5504;47.312;11.060;2024-01-07T13:36:02;5.50;;;5.00;;
10902;SDS011;5504;47.312;11.060;2024-01-07T13:38:34;4.67;;;4.27;;
10902;SDS011;5504;47.312;11.060;2024-01-07T13:40:59;6.43;;;5.50;;
10902;SDS011;5504;47.312;11.060;2024-01-07T13:43:25;5.83;;;5.23;;
10902;SDS011;5504;47.312;11.060;2024-01-07T13:45:54;5.90;;;5.00;;
10902;SDS011;5504;47.312;11.060;2024-01-07T13:48:20;5.87;;;5.00;;
10902;SDS011;5504;47.312;11.060;2024-01-07T13:50:46;5.50;;;4.80;;
10902;SDS011;5504;47.312;11.060;2024-01-07T13:53:13;6.40;;;5.20;;
10902;SDS011;5504;47.312;11.060;2024-01-07T13:55:39;5.40;;;4.90;;
10902;SDS011;5504;47.312;11.060;2024-01-07T13:58:05;6.23;;;4.60;;
10902;SDS011;5504;47.312;11.060;2024-01-07T14:00:31;5.27;;;4.77;;
10902;SDS011;5504;47.312;11.060;2024-01-07T14:02:57;5.87;;;5.27;;
10902;SDS011;5504;47.312;11.060;2024-01-07T14:05:22;6.00;;;4.90;;
10902;SDS011;5504;47.312;11.060;2024-01-07T14:07:48;5.40;;;4.90;;
10902;SDS011;5504;47.312;11.060;2024-01-07T14:10:14;5.77;;;4.40;;
10902;SDS011;5504;47.312;11.060;2024-01-07T14:12:40;5.33;;;4.50;;
10902;SDS011;5504;47.312;11.060;2024-01-07T14:15:06;5.27;;;4.77;;
10902;SDS011;5504;47.312;11.060;2024-01-07T14:17:34;4.70;;;4.20;;
10902;SDS011;5504;47.312;11.060;2024-01-07T14:20:00;5.13;;;4.63;;
10902;SDS011;5504;47.312;11.060;2024-01-07T14:22:25;5.00;;;4.40;;
10902;SDS011;5504;47.312;11.060;2024-01-07T14:24:51;4.73;;;4.20;;
10902;SDS011;5504;47.312;11.060;2024-01-07T14:27:17;5.00;;;4.50;;